hintergrundbild

 METAR AND TAF INFORMATION
METAR FOR LEAL
ADDS - METARS form results

(2013 UTC 19 August 2022)
Data provider http://aviationweather.gov/metar/data/
 
METAR text: LEAL 192000Z 00000KT CAVOK 26/19 Q1018 NOSIG
Conditions at: LEAL (ALICANTE/EL ALTE, ES) observed 2000 UTC 19 August 2022
Temperature: 26.0°C (79°F)
Dewpoint: 19.0°C (66°F) [RH = 65%]
Pressure (altimeter): 30.06 inches Hg (1018.0 mb)
Winds: calm
Visibility: 6 or more miles (10+ km)
Ceiling: ceiling and visibility are OK
Clouds: unknown
Weather: no significant weather observed at this time

METAR text: LEAL 191930Z 18001KT CAVOK 27/19 Q1017 NOSIG
Conditions at: LEAL (ALICANTE/EL ALTE, ES) observed 1930 UTC 19 August 2022
Temperature: 27.0°C (81°F)
Dewpoint: 19.0°C (66°F) [RH = 62%]
Pressure (altimeter): 30.03 inches Hg (1017.0 mb)
Winds: from the S (180 degrees) at 1 MPH (1 knots; 0.5 m/s)
Visibility: 6 or more miles (10+ km)
Ceiling: ceiling and visibility are OK
Clouds: unknown
Weather: no significant weather observed at this time

Forecast for: LEAL (ALICANTE/EL ALTE, ES)
Text: TAF LEAL 191700Z 1918/2018 10010KT 9999 FEW025 TX32/2012Z TN20/2005Z
Forecast period: 1800 UTC 19 August 2022 to 1800 UTC 20 August 2022
Forecast type: FROM: standard forecast or significant change
Winds: from the E (100 degrees) at 12 MPH (10 knots; 5.1 m/s)
Visibility: 6 or more miles (10+ km)
Ceiling: at least 12,000 feet AGL
Clouds: few clouds at 2500 feet AGL
Weather: no significant weather forecast for this period
Text: BECMG 1918/1921 VRB04KT
Forecast period: 1800 UTC 19 August 2022 to 0800 UTC 20 August 2022
Forecast type: BECOMING: Conditions expected to become as follows by 2100 UTC 19 August 2022
Winds: variable direction winds at 5 MPH (4 knots; 2.1 m/s)
Visibility: 6 or more miles (10+ km)
Ceiling: at least 12,000 feet AGL
Clouds: few clouds at 2500 feet AGL
Weather: no significant weather forecast for this period
Text: BECMG 2008/2010 10010KT
Forecast period: 0800 to 1800 UTC 20 August 2022
Forecast type: BECOMING: Conditions expected to become as follows by 1000 UTC 20 August 2022
Winds: from the E (100 degrees) at 12 MPH (10 knots; 5.1 m/s)
Visibility: 6 or more miles (10+ km)
Ceiling: at least 12,000 feet AGL
Clouds: few clouds at 2500 feet AGL
Weather: no significant weather forecast for this period

 AIRPORT MAP

 RUNWAY INFORMATION
Runway 10 Runway length 9842 ft Runway width 148 ft
Runway elevation 142 ft Runway displaced threshold 0 ft Runway heading 100
Runway 28 Runway length 9842 ft Runway width 148 ft
Runway elevation 44 ft Runway displaced threshold 0 ft Runway heading 280

 AIRPORT FREQUENCIES
Type APP Name APP Frequency 118.8 MHZ
Type ATIS Name ATIS Frequency 113.8 MHZ
Type GND Name GND Frequency 121.7 MHZ
Type TWR Name TWR Frequency 118.15 MHZ

 AIRPORT NEAR NAVIGATION AIDS
Type VOR-DME Name Alicante Frequency 113800 KHZ
Type VOR-DME Name Alicante Frequency 114650 KHZ



Impressum